Farnsfield, United Kingdom
Current Conditions -  °F | °C
As of 11:50 AM on Wednesday 28 Jan 2015 (Local Time) from EGXW Reporting Station
Scattered Clouds Scattered Clouds  
Wind Chill: 32°   Ceiling: Unl
Heat Index: 41°   Visibility: 6mi
Dew Point: 30°   Wind: 20mph
Humidity: 65%   Direction: 280°W
Pressure: 29.38"   Gusts: 31mph
Location:  53.1°N, 1.03°W
Report Text: EGXW 281150Z 28017G27KT 9999 FEW004 SCT100 05/M01 Q0995 BLU TEMPO 28028G42KT 4000 SHRASN BKN012CB GRN
Loading
Personal Weather Stations






























Interactive Weather Map New forecast layout! Learn more

10-Day Weather Forecast

Advertisements
Track Severe Weather on mobile